sensor_id;sensor_type;location;lat;lon;timestamp;pressure;altitude;pressure_sealevel;temperature;humidity
73671;BME280;61968;48.178;11.566;2022-10-28T00:02:06;96682.41;;;13.96;43.02
73671;BME280;61968;48.178;11.566;2022-10-28T00:04:33;96671.22;;;13.94;42.88
73671;BME280;61968;48.178;11.566;2022-10-28T00:07:00;96670.41;;;13.94;42.89
73671;BME280;61968;48.178;11.566;2022-10-28T00:09:26;96677.81;;;13.92;42.98
73671;BME280;61968;48.178;11.566;2022-10-28T00:11:53;96672.94;;;13.89;42.98
73671;BME280;61968;48.178;11.566;2022-10-28T00:14:22;96672.34;;;13.87;43.13
73671;BME280;61968;48.178;11.566;2022-10-28T00:16:49;96674.56;;;13.90;43.15
73671;BME280;61968;48.178;11.566;2022-10-28T00:19:16;96667.63;;;13.89;42.98
73671;BME280;61968;48.178;11.566;2022-10-28T00:21:44;96667.63;;;13.89;42.93
73671;BME280;61968;48.178;11.566;2022-10-28T00:24:12;96665.19;;;13.87;43.15
73671;BME280;61968;48.178;11.566;2022-10-28T00:26:41;96666.44;;;13.85;43.16
73671;BME280;61968;48.178;11.566;2022-10-28T00:29:11;96669.69;;;13.87;43.06
73671;BME280;61968;48.178;11.566;2022-10-28T00:31:41;96664.81;;;13.84;43.11
73671;BME280;61968;48.178;11.566;2022-10-28T00:34:11;96669.56;;;13.81;43.24
73671;BME280;61968;48.178;11.566;2022-10-28T00:36:40;96662.88;;;13.79;43.42
73671;BME280;61968;48.178;11.566;2022-10-28T00:39:10;96661.22;;;13.78;43.33
73671;BME280;61968;48.178;11.566;2022-10-28T00:41:39;96663.53;;;13.74;43.31
73671;BME280;61968;48.178;11.566;2022-10-28T00:44:39;96661.00;;;13.68;43.63
73671;BME280;61968;48.178;11.566;2022-10-28T00:47:13;96657.16;;;13.64;43.45
73671;BME280;61968;48.178;11.566;2022-10-28T00:49:41;96655.31;;;13.64;43.20
73671;BME280;61968;48.178;11.566;2022-10-28T00:52:15;96649.66;;;13.61;43.03
73671;BME280;61968;48.178;11.566;2022-10-28T00:54:44;96650.09;;;13.57;43.09
73671;BME280;61968;48.178;11.566;2022-10-28T00:57:14;96650.09;;;13.57;43.10
73671;BME280;61968;48.178;11.566;2022-10-28T00:59:46;96653.69;;;13.63;42.03
73671;BME280;61968;48.178;11.566;2022-10-28T01:02:16;96659.81;;;13.64;42.29
73671;BME280;61968;48.178;11.566;2022-10-28T01:04:45;96647.09;;;13.66;41.99
73671;BME280;61968;48.178;11.566;2022-10-28T01:09:56;96644.69;;;13.64;41.97
73671;BME280;61968;48.178;11.566;2022-10-28T01:12:28;96645.25;;;13.66;41.27
73671;BME280;61968;48.178;11.566;2022-10-28T01:15:04;96646.91;;;13.67;41.55
73671;BME280;61968;48.178;11.566;2022-10-28T01:17:43;96643.88;;;13.64;41.12
73671;BME280;61968;48.178;11.566;2022-10-28T01:23:28;96639.94;;;13.66;41.21
73671;BME280;61968;48.178;11.566;2022-10-28T01:26:22;96631.63;;;13.63;41.28
73671;BME280;61968;48.178;11.566;2022-10-28T01:29:21;96632.88;;;13.60;41.15
73671;BME280;61968;48.178;11.566;2022-10-28T01:31:58;96628.97;;;13.63;41.08
73671;BME280;61968;48.178;11.566;2022-10-28T01:34:29;96641.09;;;13.58;41.40
73671;BME280;61968;48.178;11.566;2022-10-28T01:36:59;96644.34;;;13.61;41.22
73671;BME280;61968;48.178;11.566;2022-10-28T01:39:34;96639.47;;;13.57;40.99
73671;BME280;61968;48.178;11.566;2022-10-28T01:42:11;96639.03;;;13.61;41.13
73671;BME280;61968;48.178;11.566;2022-10-28T01:44:47;96641.09;;;13.58;41.00
73671;BME280;61968;48.178;11.566;2022-10-28T01:47:21;96642.94;;;13.58;40.98
73671;BME280;61968;48.178;11.566;2022-10-28T01:49:54;96652.53;;;13.59;41.23
73671;BME280;61968;48.178;11.566;2022-10-28T01:52:25;96644.19;;;13.55;41.04
73671;BME280;61968;48.178;11.566;2022-10-28T01:54:58;96646.25;;;13.53;41.04
73671;BME280;61968;48.178;11.566;2022-10-28T01:57:26;96646.53;;;13.45;41.30
73671;BME280;61968;48.178;11.566;2022-10-28T01:59:55;96648.63;;;13.43;41.20
73671;BME280;61968;48.178;11.566;2022-10-28T02:02:24;96649.44;;;13.44;41.49
73671;BME280;61968;48.178;11.566;2022-10-28T02:04:50;96639.63;;;13.44;41.51
73671;BME280;61968;48.178;11.566;2022-10-28T02:07:17;96635.56;;;13.42;41.29
73671;BME280;61968;48.178;11.566;2022-10-28T02:10:00;96637.28;;;13.36;41.38
73671;BME280;61968;48.178;11.566;2022-10-28T02:12:29;96638.56;;;13.33;41.56
73671;BME280;61968;48.178;11.566;2022-10-28T02:15:22;96632.41;;;13.33;41.63
73671;BME280;61968;48.178;11.566;2022-10-28T02:18:22;96632.66;;;13.31;41.56
73671;BME280;61968;48.178;11.566;2022-10-28T02:20:54;96636.81;;;13.27;41.56
73671;BME280;61968;48.178;11.566;2022-10-28T02:23:30;96632.75;;;13.25;41.98
73671;BME280;61968;48.178;11.566;2022-10-28T02:26:11;96638.50;;;13.22;42.19
73671;BME280;61968;48.178;11.566;2022-10-28T02:28:47;96632.59;;;13.20;41.97
73671;BME280;61968;48.178;11.566;2022-10-28T02:31:21;96631.00;;;13.19;41.96
73671;BME280;61968;48.178;11.566;2022-10-28T02:33:53;96638.72;;;13.20;41.57
73671;BME280;61968;48.178;11.566;2022-10-28T02:36:24;96638.38;;;13.17;41.88
73671;BME280;61968;48.178;11.566;2022-10-28T02:38:55;96638.38;;;13.17;41.90
73671;BME280;61968;48.178;11.566;2022-10-28T02:41:26;96629.00;;;13.14;42.17
73671;BME280;61968;48.178;11.566;2022-10-28T02:43:58;96631.06;;;13.12;42.04
73671;BME280;61968;48.178;11.566;2022-10-28T02:46:28;96634.31;;;13.14;42.08
73671;BME280;61968;48.178;11.566;2022-10-28T02:49:02;96619.88;;;13.10;41.77
73671;BME280;61968;48.178;11.566;2022-10-28T02:51:34;96619.63;;;13.11;41.83
73671;BME280;61968;48.178;11.566;2022-10-28T02:54:05;96630.50;;;13.10;41.77
73671;BME280;61968;48.178;11.566;2022-10-28T02:56:36;96624.59;;;13.08;41.93
73671;BME280;61968;48.178;11.566;2022-10-28T02:59:08;96626.44;;;13.07;41.88
73671;BME280;61968;48.178;11.566;2022-10-28T03:01:35;96623.78;;;13.07;41.62
73671;BME280;61968;48.178;11.566;2022-10-28T03:04:05;96614.22;;;13.06;41.92
73671;BME280;61968;48.178;11.566;2022-10-28T03:06:32;96619.97;;;13.03;42.10
73671;BME280;61968;48.178;11.566;2022-10-28T03:08:59;96613.47;;;12.99;41.99
73671;BME280;61968;48.178;11.566;2022-10-28T03:11:26;96617.75;;;13.00;42.27
73671;BME280;61968;48.178;11.566;2022-10-28T03:14:02;96613.47;;;12.99;42.22
73671;BME280;61968;48.178;11.566;2022-10-28T03:16:29;96619.22;;;12.96;42.03
73671;BME280;61968;48.178;11.566;2022-10-28T03:18:55;96630.09;;;12.95;42.24
73671;BME280;61968;48.178;11.566;2022-10-28T03:21:23;96623.72;;;12.96;42.32
73671;BME280;61968;48.178;11.566;2022-10-28T03:23:50;96627.19;;;12.96;42.10
73671;BME280;61968;48.178;11.566;2022-10-28T03:26:17;96628.44;;;12.94;42.32
73671;BME280;61968;48.178;11.566;2022-10-28T03:28:43;96625.22;;;12.92;42.41
73671;BME280;61968;48.178;11.566;2022-10-28T03:31:10;96636.63;;;12.92;42.35
73671;BME280;61968;48.178;11.566;2022-10-28T03:33:36;96630.16;;;12.88;42.33
73671;BME280;61968;48.178;11.566;2022-10-28T03:36:03;96621.38;;;12.87;42.64
73671;BME280;61968;48.178;11.566;2022-10-28T03:38:31;96627.97;;;12.85;42.48
73671;BME280;61968;48.178;11.566;2022-10-28T03:40:58;96627.72;;;12.86;42.32
73671;BME280;61968;48.178;11.566;2022-10-28T03:43:25;96628.75;;;12.85;42.16
73671;BME280;61968;48.178;11.566;2022-10-28T03:45:51;96623.81;;;12.89;42.29
73671;BME280;61968;48.178;11.566;2022-10-28T03:48:18;96630.16;;;12.88;42.07
73671;BME280;61968;48.178;11.566;2022-10-28T03:50:45;96620.00;;;12.85;42.06
73671;BME280;61968;48.178;11.566;2022-10-28T03:53:11;96622.06;;;12.83;42.18
73671;BME280;61968;48.178;11.566;2022-10-28T03:55:39;96625.34;;;12.78;42.06
73671;BME280;61968;48.178;11.566;2022-10-28T03:58:06;96624.19;;;12.74;42.06
73671;BME280;61968;48.178;11.566;2022-10-28T04:00:32;96628.69;;;12.74;42.13
73671;BME280;61968;48.178;11.566;2022-10-28T04:02:59;96625.69;;;12.70;42.39
73671;BME280;61968;48.178;11.566;2022-10-28T04:05:25;96629.34;;;12.69;42.21
73671;BME280;61968;48.178;11.566;2022-10-28T04:07:52;96626.25;;;12.72;42.22
73671;BME280;61968;48.178;11.566;2022-10-28T04:10:19;96630.53;;;12.73;42.29
73671;BME280;61968;48.178;11.566;2022-10-28T04:12:47;96626.25;;;12.72;42.38
73671;BME280;61968;48.178;11.566;2022-10-28T04:15:14;96630.75;;;12.72;42.16
73671;BME280;61968;48.178;11.566;2022-10-28T04:17:40;96628.09;;;12.72;42.28
73671;BME280;61968;48.178;11.566;2022-10-28T04:20:08;96625.88;;;12.68;42.25
73671;BME280;61968;48.178;11.566;2022-10-28T04:22:35;96631.78;;;12.71;42.16
73671;BME280;61968;48.178;11.566;2022-10-28T04:25:01;96626.31;;;12.65;42.25
73671;BME280;61968;48.178;11.566;2022-10-28T04:27:28;96618.56;;;12.64;42.18
73671;BME280;61968;48.178;11.566;2022-10-28T04:29:56;96619.59;;;12.63;42.25
73671;BME280;61968;48.178;11.566;2022-10-28T04:32:23;96620.63;;;12.62;42.32
73671;BME280;61968;48.178;11.566;2022-10-28T04:34:49;96627.53;;;12.63;42.37
73671;BME280;61968;48.178;11.566;2022-10-28T04:37:16;96628.78;;;12.60;42.23
73671;BME280;61968;48.178;11.566;2022-10-28T04:39:42;96623.94;;;12.57;42.42
73671;BME280;61968;48.178;11.566;2022-10-28T04:42:11;96628.44;;;12.57;42.32
73671;BME280;61968;48.178;11.566;2022-10-28T04:44:37;96628.22;;;12.58;42.27
73671;BME280;61968;48.178;11.566;2022-10-28T04:47:05;96623.94;;;12.57;42.24
73671;BME280;61968;48.178;11.566;2022-10-28T04:49:32;96619.47;;;12.58;42.03
73671;BME280;61968;48.178;11.566;2022-10-28T04:51:58;96623.34;;;12.55;42.12
73671;BME280;61968;48.178;11.566;2022-10-28T04:54:25;96615.84;;;12.52;42.23
73671;BME280;61968;48.178;11.566;2022-10-28T04:56:53;96618.50;;;12.52;42.29
73671;BME280;61968;48.178;11.566;2022-10-28T04:59:20;96625.03;;;12.50;42.17
73671;BME280;61968;48.178;11.566;2022-10-28T05:01:47;96618.94;;;12.49;42.06
73671;BME280;61968;48.178;11.566;2022-10-28T05:04:16;96619.13;;;12.48;42.20
73671;BME280;61968;48.178;11.566;2022-10-28T05:06:42;96622.03;;;12.46;42.21
73671;BME280;61968;48.178;11.566;2022-10-28T05:09:09;96622.47;;;12.43;42.34
73671;BME280;61968;48.178;11.566;2022-10-28T05:11:36;96615.91;;;12.45;42.21
73671;BME280;61968;48.178;11.566;2022-10-28T05:14:02;96612.00;;;12.48;42.25
73671;BME280;61968;48.178;11.566;2022-10-28T05:16:29;96606.91;;;12.47;42.14
73671;BME280;61968;48.178;11.566;2022-10-28T05:18:56;96609.34;;;12.48;42.19
73671;BME280;61968;48.178;11.566;2022-10-28T05:21:24;96604.88;;;12.49;42.10
73671;BME280;61968;48.178;11.566;2022-10-28T05:23:51;96596.75;;;12.43;42.13
73671;BME280;61968;48.178;11.566;2022-10-28T05:26:17;96604.72;;;12.43;42.19
73671;BME280;61968;48.178;11.566;2022-10-28T05:28:47;96601.25;;;12.43;42.22
73671;BME280;61968;48.178;11.566;2022-10-28T05:31:14;96601.81;;;12.45;42.20
73671;BME280;61968;48.178;11.566;2022-10-28T05:33:41;96597.56;;;12.44;42.29
73671;BME280;61968;48.178;11.566;2022-10-28T05:36:08;96592.25;;;12.44;42.08
73671;BME280;61968;48.178;11.566;2022-10-28T05:38:36;96604.13;;;12.41;42.33
73671;BME280;61968;48.178;11.566;2022-10-28T05:41:05;96602.72;;;12.39;42.22
73671;BME280;61968;48.178;11.566;2022-10-28T05:43:32;96606.16;;;12.39;42.17
73671;BME280;61968;48.178;11.566;2022-10-28T05:45:58;96609.22;;;12.43;42.25
73671;BME280;61968;48.178;11.566;2022-10-28T05:48:26;96600.41;;;12.42;42.18
73671;BME280;61968;48.178;11.566;2022-10-28T05:50:53;96602.50;;;12.40;42.16
73671;BME280;61968;48.178;11.566;2022-10-28T05:53:20;96608.44;;;12.36;42.33
73671;BME280;61968;48.178;11.566;2022-10-28T05:55:48;96606.25;;;12.33;42.49
73671;BME280;61968;48.178;11.566;2022-10-28T05:58:14;96613.38;;;12.32;42.51
73671;BME280;61968;48.178;11.566;2022-10-28T06:00:44;96618.09;;;12.30;42.62
73671;BME280;61968;48.178;11.566;2022-10-28T06:03:12;96614.44;;;12.31;42.49
73671;BME280;61968;48.178;11.566;2022-10-28T06:05:41;96622.75;;;12.35;42.57
73671;BME280;61968;48.178;11.566;2022-10-28T06:08:09;96626.13;;;12.42;42.17
73671;BME280;61968;48.178;11.566;2022-10-28T06:10:36;96629.38;;;12.44;42.18
73671;BME280;61968;48.178;11.566;2022-10-28T06:13:04;96636.31;;;12.45;42.19
73671;BME280;61968;48.178;11.566;2022-10-28T06:15:31;96636.75;;;12.42;42.23
73671;BME280;61968;48.178;11.566;2022-10-28T06:17:58;96636.31;;;12.45;42.85
73671;BME280;61968;48.178;11.566;2022-10-28T06:20:25;96641.16;;;12.48;43.07
73671;BME280;61968;48.178;11.566;2022-10-28T06:22:53;96630.94;;;12.52;42.60
73671;BME280;61968;48.178;11.566;2022-10-28T06:25:27;96629.47;;;12.56;42.38
73671;BME280;61968;48.178;11.566;2022-10-28T06:27:55;96636.63;;;12.55;42.27
73671;BME280;61968;48.178;11.566;2022-10-28T06:30:25;96641.50;;;12.58;41.94
73671;BME280;61968;48.178;11.566;2022-10-28T06:32:52;96639.84;;;12.57;41.93
73671;BME280;61968;48.178;11.566;2022-10-28T06:35:21;96638.22;;;12.56;42.00
73671;BME280;61968;48.178;11.566;2022-10-28T06:37:52;96637.00;;;12.59;42.10
73671;BME280;61968;48.178;11.566;2022-10-28T06:40:19;96641.03;;;12.61;42.24
73671;BME280;61968;48.178;11.566;2022-10-28T06:42:45;96633.91;;;12.62;42.09
73671;BME280;61968;48.178;11.566;2022-10-28T06:45:12;96628.19;;;12.65;41.58
73671;BME280;61968;48.178;11.566;2022-10-28T06:47:40;96628.34;;;12.70;41.39
73671;BME280;61968;48.178;11.566;2022-10-28T06:50:09;96636.88;;;12.72;41.41
73671;BME280;61968;48.178;11.566;2022-10-28T06:52:35;96638.97;;;12.63;41.73
73671;BME280;61968;48.178;11.566;2022-10-28T06:55:03;96635.94;;;12.60;42.04
73671;BME280;61968;48.178;11.566;2022-10-28T06:57:29;96634.09;;;12.60;41.96
73671;BME280;61968;48.178;11.566;2022-10-28T06:59:56;96641.03;;;12.61;42.10
73671;BME280;61968;48.178;11.566;2022-10-28T07:02:23;96643.84;;;12.66;42.45
73671;BME280;61968;48.178;11.566;2022-10-28T07:04:51;96646.59;;;12.78;42.20
73671;BME280;61968;48.178;11.566;2022-10-28T07:07:20;96650.28;;;12.77;42.16
73671;BME280;61968;48.178;11.566;2022-10-28T07:09:46;96653.09;;;12.82;42.31
73671;BME280;61968;48.178;11.566;2022-10-28T07:12:19;96662.00;;;12.88;42.20
73671;BME280;61968;48.178;11.566;2022-10-28T07:14:45;96659.13;;;12.89;42.13
73671;BME280;61968;48.178;11.566;2022-10-28T07:17:12;96661.19;;;12.87;42.24
73671;BME280;61968;48.178;11.566;2022-10-28T07:19:39;96664.06;;;12.86;42.14
73671;BME280;61968;48.178;11.566;2022-10-28T07:22:07;96666.28;;;12.89;42.10
73671;BME280;61968;48.178;11.566;2022-10-28T07:24:33;96671.75;;;12.94;42.22
73671;BME280;61968;48.178;11.566;2022-10-28T07:27:00;96674.75;;;12.98;41.94
73671;BME280;61968;48.178;11.566;2022-10-28T07:29:26;96680.44;;;13.01;42.11
73671;BME280;61968;48.178;11.566;2022-10-28T07:31:53;96677.78;;;13.01;42.16
73671;BME280;61968;48.178;11.566;2022-10-28T07:34:20;96687.94;;;13.04;41.97
73671;BME280;61968;48.178;11.566;2022-10-28T07:36:48;96683.81;;;13.08;42.04
73671;BME280;61968;48.178;11.566;2022-10-28T07:39:17;96686.25;;;13.10;41.82
73671;BME280;61968;48.178;11.566;2022-10-28T07:41:43;96684.16;;;13.12;41.85
73671;BME280;61968;48.178;11.566;2022-10-28T07:44:10;96687.78;;;13.18;41.63
73671;BME280;61968;48.178;11.566;2022-10-28T07:46:37;96686.88;;;13.24;41.69
73671;BME280;61968;48.178;11.566;2022-10-28T07:49:06;96693.38;;;13.28;41.44
73671;BME280;61968;48.178;11.566;2022-10-28T07:51:33;96691.69;;;13.33;41.28
73671;BME280;61968;48.178;11.566;2022-10-28T07:53:59;96683.38;;;13.42;41.57
73671;BME280;61968;48.178;11.566;2022-10-28T07:56:30;96678.56;;;13.50;41.46
73671;BME280;61968;48.178;11.566;2022-10-28T07:58:59;96672.53;;;13.62;41.15
73671;BME280;61968;48.178;11.566;2022-10-28T08:01:25;96672.88;;;13.65;40.88
73671;BME280;61968;48.178;11.566;2022-10-28T08:03:52;96680.19;;;13.70;40.86
73671;BME280;61968;48.178;11.566;2022-10-28T08:06:20;96675.56;;;13.77;40.99
73671;BME280;61968;48.178;11.566;2022-10-28T08:08:51;96671.75;;;13.85;40.66
73671;BME280;61968;48.178;11.566;2022-10-28T08:11:19;96673.63;;;13.96;39.99
73671;BME280;61968;48.178;11.566;2022-10-28T08:13:49;96685.34;;;14.07;39.69
73671;BME280;61968;48.178;11.566;2022-10-28T08:16:16;96680.72;;;14.14;39.51
73671;BME280;61968;48.178;11.566;2022-10-28T08:18:43;96681.19;;;14.22;39.70
73671;BME280;61968;48.178;11.566;2022-10-28T08:21:11;96688.59;;;14.32;39.71
73671;BME280;61968;48.178;11.566;2022-10-28T08:23:38;96682.38;;;14.38;39.62
73671;BME280;61968;48.178;11.566;2022-10-28T08:26:06;96683.09;;;14.45;39.41
73671;BME280;61968;48.178;11.566;2022-10-28T08:28:33;96672.78;;;14.49;39.33
73671;BME280;61968;48.178;11.566;2022-10-28T08:31:03;96660.41;;;14.55;39.63
73671;BME280;61968;48.178;11.566;2022-10-28T08:33:33;96674.72;;;14.65;39.57
73671;BME280;61968;48.178;11.566;2022-10-28T08:36:00;96667.34;;;14.67;39.34
73671;BME280;61968;48.178;11.566;2022-10-28T08:38:28;96680.50;;;14.74;39.04
73671;BME280;61968;48.178;11.566;2022-10-28T08:41:03;96677.38;;;14.77;38.42
73671;BME280;61968;48.178;11.566;2022-10-28T08:43:48;96670.53;;;14.81;38.23
73671;BME280;61968;48.178;11.566;2022-10-28T08:46:21;96661.53;;;14.82;38.41
73671;BME280;61968;48.178;11.566;2022-10-28T08:48:52;96666.94;;;14.87;38.86
73671;BME280;61968;48.178;11.566;2022-10-28T08:51:23;96665.44;;;14.91;38.60
73671;BME280;61968;48.178;11.566;2022-10-28T08:53:57;96669.13;;;14.90;38.33
73671;BME280;61968;48.178;11.566;2022-10-28T08:56:30;96673.19;;;14.93;38.74
73671;BME280;61968;48.178;11.566;2022-10-28T08:59:00;96677.00;;;14.97;38.92
73671;BME280;61968;48.178;11.566;2022-10-28T09:01:38;96675.47;;;15.01;38.92
73671;BME280;61968;48.178;11.566;2022-10-28T09:04:14;96672.34;;;15.04;39.03
73671;BME280;61968;48.178;11.566;2022-10-28T09:06:43;96670.81;;;15.08;39.21
73671;BME280;61968;48.178;11.566;2022-10-28T09:09:17;96675.59;;;15.18;39.19
73671;BME280;61968;48.178;11.566;2022-10-28T09:11:59;96680.19;;;15.23;38.92
73671;BME280;61968;48.178;11.566;2022-10-28T09:14:34;96684.91;;;15.32;39.19
73671;BME280;61968;48.178;11.566;2022-10-28T09:17:15;96678.09;;;15.36;38.40
73671;BME280;61968;48.178;11.566;2022-10-28T09:19:46;96675.41;;;15.36;38.92
73671;BME280;61968;48.178;11.566;2022-10-28T09:22:20;96675.97;;;15.38;39.08
73671;BME280;61968;48.178;11.566;2022-10-28T09:24:51;96669.69;;;15.45;39.35
73671;BME280;61968;48.178;11.566;2022-10-28T09:27:27;96661.78;;;15.50;39.03
73671;BME280;61968;48.178;11.566;2022-10-28T09:30:09;96668.50;;;15.52;38.56
73671;BME280;61968;48.178;11.566;2022-10-28T09:32:47;96661.97;;;15.60;38.91
73671;BME280;61968;48.178;11.566;2022-10-28T09:35:21;96672.81;;;15.70;38.26
73671;BME280;61968;48.178;11.566;2022-10-28T09:37:55;96664.19;;;15.80;37.43
73671;BME280;61968;48.178;11.566;2022-10-28T09:40:26;96663.06;;;15.93;36.81
73671;BME280;61968;48.178;11.566;2022-10-28T09:42:59;96653.09;;;16.00;36.18
73671;BME280;61968;48.178;11.566;2022-10-28T09:45:30;96656.13;;;16.08;35.96
73671;BME280;61968;48.178;11.566;2022-10-28T09:48:01;96661.81;;;16.12;35.52
73671;BME280;61968;48.178;11.566;2022-10-28T09:50:32;96666.09;;;16.13;35.89
73671;BME280;61968;48.178;11.566;2022-10-28T09:53:03;96671.56;;;16.23;35.39
73671;BME280;61968;48.178;11.566;2022-10-28T09:55:34;96664.53;;;16.34;35.54
73671;BME280;61968;48.178;11.566;2022-10-28T09:58:02;96659.78;;;16.36;35.16
73671;BME280;61968;48.178;11.566;2022-10-28T10:00:29;96666.88;;;16.47;34.82
73671;BME280;61968;48.178;11.566;2022-10-28T10:02:58;96667.44;;;16.49;34.70
73671;BME280;61968;48.178;11.566;2022-10-28T10:05:25;96665.88;;;16.53;34.70
73671;BME280;61968;48.178;11.566;2022-10-28T10:07:54;96668.06;;;16.57;35.40
73671;BME280;61968;48.178;11.566;2022-10-28T10:10:25;96662.41;;;16.70;35.88
73671;BME280;61968;48.178;11.566;2022-10-28T10:12:56;96657.69;;;16.77;35.66
73671;BME280;61968;48.178;11.566;2022-10-28T10:15:27;96652.72;;;16.86;34.68
73671;BME280;61968;48.178;11.566;2022-10-28T10:17:59;96656.88;;;16.98;35.42
73671;BME280;61968;48.178;11.566;2022-10-28T10:20:26;96646.00;;;17.05;34.24
73671;BME280;61968;48.178;11.566;2022-10-28T10:22:54;96647.66;;;17.06;34.55
73671;BME280;61968;48.178;11.566;2022-10-28T10:25:24;96649.31;;;17.12;34.56
73671;BME280;61968;48.178;11.566;2022-10-28T10:27:52;96650.69;;;17.15;34.20
73671;BME280;61968;48.178;11.566;2022-10-28T10:30:22;96645.94;;;17.22;34.80
73671;BME280;61968;48.178;11.566;2022-10-28T10:32:49;96653.84;;;17.34;34.69
73671;BME280;61968;48.178;11.566;2022-10-28T10:35:23;96651.22;;;17.39;34.52
73671;BME280;61968;48.178;11.566;2022-10-28T10:37:50;96654.81;;;17.50;34.01
73671;BME280;61968;48.178;11.566;2022-10-28T10:40:22;96648.72;;;17.54;32.92
73671;BME280;61968;48.178;11.566;2022-10-28T10:42:50;96641.59;;;17.65;32.83
73671;BME280;61968;48.178;11.566;2022-10-28T10:45:20;96648.94;;;17.80;33.04
73671;BME280;61968;48.178;11.566;2022-10-28T10:47:48;96641.84;;;17.90;33.23
73671;BME280;61968;48.178;11.566;2022-10-28T10:50:27;96644.75;;;17.89;31.84
73671;BME280;61968;48.178;11.566;2022-10-28T10:52:56;96648.53;;;17.93;32.71
73671;BME280;61968;48.178;11.566;2022-10-28T10:55:32;96637.63;;;18.00;32.70
73671;BME280;61968;48.178;11.566;2022-10-28T10:58:00;96638.72;;;18.04;32.43
73671;BME280;61968;48.178;11.566;2022-10-28T11:00:31;96630.19;;;18.07;32.38
73671;BME280;61968;48.178;11.566;2022-10-28T11:03:01;96625.13;;;18.10;32.29
73671;BME280;61968;48.178;11.566;2022-10-28T11:05:31;96631.63;;;18.15;31.03
73671;BME280;61968;48.178;11.566;2022-10-28T11:08:00;96626.78;;;18.17;30.62
73671;BME280;61968;48.178;11.566;2022-10-28T11:10:31;96622.94;;;18.07;29.58
73671;BME280;61968;48.178;11.566;2022-10-28T11:13:03;96615.22;;;18.11;29.60
73671;BME280;61968;48.178;11.566;2022-10-28T11:15:30;96613.97;;;18.19;29.98
73671;BME280;61968;48.178;11.566;2022-10-28T11:18:00;96615.09;;;18.28;30.10
73671;BME280;61968;48.178;11.566;2022-10-28T11:20:37;96620.50;;;18.38;31.71
73671;BME280;61968;48.178;11.566;2022-10-28T11:23:26;96610.34;;;18.40;32.69
73671;BME280;61968;48.178;11.566;2022-10-28T11:26:00;96602.13;;;18.52;33.63
73671;BME280;61968;48.178;11.566;2022-10-28T11:28:45;96598.41;;;18.58;33.23
73671;BME280;61968;48.178;11.566;2022-10-28T11:34:46;96597.94;;;18.76;32.64
73671;BME280;61968;48.178;11.566;2022-10-28T11:37:26;96596.34;;;18.80;33.23
73671;BME280;61968;48.178;11.566;2022-10-28T11:40:05;96592.66;;;18.92;34.42
73671;BME280;61968;48.178;11.566;2022-10-28T11:42:44;96594.03;;;19.04;33.31
73671;BME280;61968;48.178;11.566;2022-10-28T11:45:20;96599.44;;;19.10;34.09
73671;BME280;61968;48.178;11.566;2022-10-28T11:48:13;96590.59;;;19.14;33.38
73671;BME280;61968;48.178;11.566;2022-10-28T11:50:55;96583.13;;;19.26;32.77
73671;BME280;61968;48.178;11.566;2022-10-28T11:53:50;96587.41;;;19.38;33.07
73671;BME280;61968;48.178;11.566;2022-10-28T11:56:28;96586.91;;;19.46;32.14
73671;BME280;61968;48.178;11.566;2022-10-28T11:59:07;96582.41;;;19.57;32.31
73671;BME280;61968;48.178;11.566;2022-10-28T12:01:44;96579.72;;;19.67;32.28
73671;BME280;61968;48.178;11.566;2022-10-28T12:04:33;96584.00;;;19.73;32.15
73671;BME280;61968;48.178;11.566;2022-10-28T12:07:20;96580.75;;;19.86;32.14
73671;BME280;61968;48.178;11.566;2022-10-28T12:10:07;96577.00;;;19.98;31.64
73671;BME280;61968;48.178;11.566;2022-10-28T12:12:48;96575.66;;;20.05;32.06
73671;BME280;61968;48.178;11.566;2022-10-28T12:15:28;96580.25;;;20.15;31.58
73671;BME280;61968;48.178;11.566;2022-10-28T12:18:01;96572.69;;;20.22;31.89
73671;BME280;61968;48.178;11.566;2022-10-28T12:20:34;96568.91;;;20.38;30.99
73671;BME280;61968;48.178;11.566;2022-10-28T12:23:10;96570.22;;;20.51;31.56
73671;BME280;61968;48.178;11.566;2022-10-28T12:25:44;96567.78;;;20.60;30.56
73671;BME280;61968;48.178;11.566;2022-10-28T12:28:18;96558.63;;;20.56;31.01
73671;BME280;61968;48.178;11.566;2022-10-28T12:30:48;96564.78;;;20.61;31.12
73671;BME280;61968;48.178;11.566;2022-10-28T12:33:19;96558.31;;;20.68;30.42
73671;BME280;61968;48.178;11.566;2022-10-28T12:35:51;96555.88;;;20.76;31.23
73671;BME280;61968;48.178;11.566;2022-10-28T12:38:24;96550.19;;;20.88;31.27
73671;BME280;61968;48.178;11.566;2022-10-28T12:41:01;96552.31;;;20.96;30.55
73671;BME280;61968;48.178;11.566;2022-10-28T12:43:33;96547.16;;;21.05;31.03
73671;BME280;61968;48.178;11.566;2022-10-28T12:46:02;96542.53;;;21.11;31.90
73671;BME280;61968;48.178;11.566;2022-10-28T12:48:33;96543.03;;;21.18;30.59
73671;BME280;61968;48.178;11.566;2022-10-28T12:51:05;96538.44;;;21.23;29.82
73671;BME280;61968;48.178;11.566;2022-10-28T12:53:39;96545.41;;;21.24;30.50
73671;BME280;61968;48.178;11.566;2022-10-28T12:56:11;96544.31;;;21.25;28.55
73671;BME280;61968;48.178;11.566;2022-10-28T12:58:48;96540.28;;;21.28;28.11
73671;BME280;61968;48.178;11.566;2022-10-28T13:01:18;96531.38;;;21.33;28.34
73671;BME280;61968;48.178;11.566;2022-10-28T13:03:48;96538.91;;;21.30;27.96
73671;BME280;61968;48.178;11.566;2022-10-28T13:06:31;96536.19;;;21.36;28.96
73671;BME280;61968;48.178;11.566;2022-10-28T13:12:40;96536.81;;;21.62;28.11
73671;BME280;61968;48.178;11.566;2022-10-28T13:15:37;96535.94;;;21.71;27.27
73671;BME280;61968;48.178;11.566;2022-10-28T13:18:35;96532.38;;;21.81;28.33
73671;BME280;61968;48.178;11.566;2022-10-28T13:21:14;96526.97;;;21.81;26.94
73671;BME280;61968;48.178;11.566;2022-10-28T13:23:53;96529.75;;;22.00;27.60